Terminal Aerodrome Forecast
Issued by NWS Twin Cities, MN

Home | Current Version | Previous Version | Text Only | Print | Product List | Glossary On
Versions: 1 2 3 4 5 6 7 8 9 10 11 12 13 14 15 16
000
FTUS43 KMPX 290520
TAFEAU
TAF
KEAU 290520Z 2906/3006 18009KT P6SM BKN250
     FM290700 18012G20KT P6SM OVC200
     FM291100 18016G24KT 6SM -RASN BR BKN040 OVC090
     FM291400 21014G24KT P6SM VCSH BKN020 OVC040 PROB30 2915/2919
      5SM -SHRA OVC015
     FM291900 30022G31KT P6SM SCT020 BKN035
     FM300100 30013KT P6SM SCT040=

USA.gov is the U.S. government's official web portal to all federal, state and local government web resources and services.